Time;durP1;ratioP1;P1;durP2;ratioP2;P2;SDS_P1;SDS_P2;PMS_P1;PMS_P2;Temp;Humidity;BMP_temperature;BMP_pressure;BME280_temperature;BME280_humidity;BME280_pressure;Samples;Min_cycle;Max_cycle;Signal;HPM_P1;HPM_P2
2021/09/15 00:00:46;;;;;;;;;;;14.30;99.90;;;;;;5074497;28;20007;-67
2021/09/15 00:03:12;;;;;;;;;;;14.40;99.90;;;;;;5074627;28;19967;-68
2021/09/15 00:05:39;;;;;;;;;;;14.40;99.90;;;;;;5074342;28;20007;-67
2021/09/15 00:08:06;;;;;;;;;;;14.40;99.90;;;;;;5075351;28;19950;-68
2021/09/15 00:10:32;;;;;;;;;;;14.50;99.90;;;;;;5074489;28;20317;-69
2021/09/15 00:12:59;;;;;;;;;;;14.50;99.90;;;;;;5073646;28;19909;-68
2021/09/15 00:15:26;;;;;;;;;;;14.50;99.90;;;;;;5074495;28;19908;-67
2021/09/15 00:17:52;;;;;;;;;;;14.60;99.90;;;;;;5074127;28;19909;-68
2021/09/15 00:20:19;;;;;;;;;;;14.60;99.90;;;;;;5074161;28;19924;-68
2021/09/15 00:22:46;;;;;;;;;;;14.50;99.90;;;;;;5074144;28;19908;-67
2021/09/15 00:25:12;;;;;;;;;;;14.60;99.90;;;;;;5074146;28;20007;-67
2021/09/15 00:27:39;;;;;;;;;;;14.60;99.90;;;;;;5073922;28;19909;-67
2021/09/15 00:30:06;;;;;;;;;;;14.80;99.90;;;;;;5074016;28;20038;-67
2021/09/15 00:32:33;;;;;;;;;;;14.90;99.90;;;;;;5073889;28;19908;-68
2021/09/15 00:35:00;;;;;;;;;;;15.00;99.90;;;;;;5073722;28;19912;-68
2021/09/15 00:37:26;;;;;;;;;;;15.10;99.90;;;;;;5073879;28;19915;-68
2021/09/15 00:39:53;;;;;;;;;;;15.10;99.90;;;;;;5073148;28;19923;-68
2021/09/15 00:42:20;;;;;;;;;;;15.00;99.90;;;;;;5073787;28;20390;-68
2021/09/15 00:44:46;;;;;;;;;;;15.10;99.90;;;;;;5073651;28;19908;-67
2021/09/15 00:47:13;;;;;;;;;;;15.10;99.90;;;;;;5073632;28;19920;-67
2021/09/15 00:49:39;;;;;;;;;;;15.10;99.90;;;;;;5073459;28;19909;-68
2021/09/15 00:52:06;;;;;;;;;;;15.20;99.90;;;;;;5073595;28;19925;-67
2021/09/15 00:54:33;;;;;;;;;;;15.10;99.90;;;;;;5072293;28;19970;-67
2021/09/15 00:57:00;;;;;;;;;;;15.10;99.90;;;;;;5073529;28;20315;-67
2021/09/15 00:59:26;;;;;;;;;;;15.00;99.90;;;;;;5073400;28;19958;-67
2021/09/15 01:01:53;;;;;;;;;;;15.00;99.90;;;;;;5073520;28;20429;-67
2021/09/15 01:04:19;;;;;;;;;;;15.10;99.90;;;;;;5073419;28;19948;-67
2021/09/15 01:06:46;;;;;;;;;;;15.20;99.90;;;;;;5073366;28;19958;-67
2021/09/15 01:09:13;;;;;;;;;;;15.30;99.90;;;;;;5073216;28;19938;-67
2021/09/15 01:11:42;;;;;;;;;;;15.30;99.90;;;;;;5072854;28;20360;-66
2021/09/15 01:14:10;;;;;;;;;;;15.10;99.90;;;;;;5073281;28;19912;-67
2021/09/15 01:16:52;;;;;;;;;;;15.00;99.90;;;;;;5072946;28;19991;-66
2021/09/15 01:19:18;;;;;;;;;;;14.90;99.90;;;;;;5072980;28;19923;-68
2021/09/15 01:21:48;;;;;;;;;;;14.90;99.90;;;;;;5072837;28;19954;-68
2021/09/15 01:24:15;;;;;;;;;;;15.10;99.90;;;;;;5072737;28;20390;-68
2021/09/15 01:26:42;;;;;;;;;;;15.50;99.90;;;;;;5073076;28;19909;-68
2021/09/15 01:29:22;;;;;;;;;;;15.50;99.90;;;;;;5072858;28;19919;-68
2021/09/15 01:32:01;;;;;;;;;;;15.60;99.90;;;;;;5072461;28;19912;-68
2021/09/15 01:34:29;;;;;;;;;;;15.50;99.90;;;;;;5073002;28;19930;-68
2021/09/15 01:36:55;;;;;;;;;;;15.50;99.90;;;;;;5072815;28;20310;-68
2021/09/15 01:39:22;;;;;;;;;;;15.40;99.90;;;;;;5072544;28;19916;-69
2021/09/15 01:41:49;;;;;;;;;;;15.60;99.90;;;;;;5072455;28;19908;-68
2021/09/15 01:44:16;;;;;;;;;;;15.70;99.90;;;;;;5072648;28;19944;-68
2021/09/15 01:46:43;;;;;;;;;;;15.70;99.90;;;;;;5072602;28;19908;-68
2021/09/15 01:49:09;;;;;;;;;;;15.70;99.90;;;;;;5072789;28;19928;-68
2021/09/15 01:51:40;;;;;;;;;;;15.60;99.90;;;;;;5072567;28;19915;-68
2021/09/15 01:54:06;;;;;;;;;;;15.70;99.90;;;;;;5072452;28;20306;-68
2021/09/15 01:56:33;;;;;;;;;;;15.80;99.90;;;;;;5072568;28;19909;-68
2021/09/15 01:59:00;;;;;;;;;;;15.70;99.90;;;;;;5072914;28;20011;-68
2021/09/15 02:01:26;;;;;;;;;;;15.60;99.90;;;;;;5072481;28;19952;-68
2021/09/15 02:03:53;;;;;;;;;;;15.60;99.90;;;;;;5072401;28;19915;-68
2021/09/15 02:06:19;;;;;;;;;;;15.50;99.90;;;;;;5072443;28;19908;-68
2021/09/15 02:08:46;;;;;;;;;;;15.30;99.90;;;;;;5072323;28;19909;-68
2021/09/15 02:11:13;;;;;;;;;;;15.20;99.90;;;;;;5072675;28;19995;-68
2021/09/15 02:13:39;;;;;;;;;;;15.20;99.90;;;;;;5072140;28;19908;-68
2021/09/15 02:16:06;;;;;;;;;;;15.20;99.90;;;;;;5072601;28;19909;-68
2021/09/15 02:18:33;;;;;;;;;;;15.40;99.90;;;;;;5072497;28;19961;-68
2021/09/15 02:20:59;;;;;;;;;;;15.50;99.90;;;;;;5072348;28;19958;-68
2021/09/15 02:23:26;;;;;;;;;;;15.60;99.90;;;;;;5072316;28;20328;-68
2021/09/15 02:25:53;;;;;;;;;;;15.70;99.90;;;;;;5072720;28;19991;-68
2021/09/15 02:28:19;;;;;;;;;;;15.80;99.90;;;;;;5072913;28;20050;-68
2021/09/15 02:30:46;;;;;;;;;;;15.80;99.90;;;;;;5072515;28;19940;-68
2021/09/15 02:33:12;;;;;;;;;;;15.80;99.90;;;;;;5072731;28;19909;-68
2021/09/15 02:35:39;;;;;;;;;;;15.70;99.90;;;;;;5074094;28;20385;-68
2021/09/15 02:38:06;;;;;;;;;;;15.80;99.90;;;;;;5076720;28;20267;-68
2021/09/15 02:40:32;;;;;;;;;;;15.80;99.90;;;;;;5076663;28;19923;-69
2021/09/15 02:42:59;;;;;;;;;;;15.80;99.90;;;;;;5076506;28;19909;-68
2021/09/15 02:45:26;;;;;;;;;;;15.70;99.90;;;;;;5076798;28;19915;-68
2021/09/15 02:47:52;;;;;;;;;;;15.60;99.90;;;;;;5076821;28;19921;-70
2021/09/15 02:50:19;;;;;;;;;;;15.60;99.90;;;;;;5076146;28;19915;-69
2021/09/15 02:52:45;;;;;;;;;;;15.80;99.90;;;;;;5075921;28;19912;-69
2021/09/15 02:55:12;;;;;;;;;;;15.70;99.90;;;;;;5076094;28;19909;-68
2021/09/15 02:57:39;;;;;;;;;;;15.80;99.90;;;;;;5075591;28;19944;-68
2021/09/15 03:00:06;;;;;;;;;;;15.90;99.90;;;;;;5075521;28;19917;-68
2021/09/15 03:02:32;;;;;;;;;;;15.90;99.90;;;;;;5075771;28;20390;-69
2021/09/15 03:04:59;;;;;;;;;;;16.00;99.90;;;;;;5075487;28;19919;-69
2021/09/15 03:07:26;;;;;;;;;;;16.10;99.90;;;;;;5091246;28;19995;-69
2021/09/15 03:09:52;;;;;;;;;;;16.00;99.90;;;;;;5090789;28;20339;-70
2021/09/15 03:12:19;;;;;;;;;;;16.00;99.90;;;;;;5075881;28;19977;-69
2021/09/15 03:14:46;;;;;;;;;;;16.00;99.90;;;;;;5076072;28;19912;-69
2021/09/15 03:17:12;;;;;;;;;;;16.20;99.90;;;;;;5075871;28;19909;-69
2021/09/15 03:19:39;;;;;;;;;;;16.20;99.90;;;;;;5075314;28;19923;-69
2021/09/15 03:22:06;;;;;;;;;;;16.20;99.90;;;;;;5075591;28;20330;-69
2021/09/15 03:24:32;;;;;;;;;;;16.10;99.90;;;;;;5075333;28;20398;-69
2021/09/15 03:27:03;;;;;;;;;;;16.00;99.90;;;;;;5075598;28;19956;-69
2021/09/15 03:29:30;;;;;;;;;;;15.80;99.90;;;;;;5075703;28;19956;-69
2021/09/15 03:31:57;;;;;;;;;;;15.80;99.90;;;;;;5075470;28;19954;-69
2021/09/15 03:34:24;;;;;;;;;;;15.80;99.90;;;;;;5075294;28;19919;-69
2021/09/15 03:36:51;;;;;;;;;;;15.80;99.90;;;;;;5075352;28;19919;-69
2021/09/15 03:39:18;;;;;;;;;;;15.80;99.90;;;;;;5107655;28;20527;-68
2021/09/15 03:41:45;;;;;;;;;;;15.80;99.90;;;;;;5074933;28;19915;-68
2021/09/15 03:44:12;;;;;;;;;;;15.80;99.90;;;;;;5075351;28;19908;-68
2021/09/15 03:46:38;;;;;;;;;;;15.80;99.90;;;;;;5074065;28;19913;-68
2021/09/15 03:49:05;;;;;;;;;;;15.70;99.90;;;;;;5075141;28;19912;-69
2021/09/15 03:51:32;;;;;;;;;;;15.70;99.90;;;;;;5075913;28;20370;-69
2021/09/15 03:53:59;;;;;;;;;;;15.70;99.90;;;;;;5075021;28;19919;-68
2021/09/15 03:56:25;;;;;;;;;;;15.70;99.90;;;;;;5075242;28;19939;-69
2021/09/15 03:58:52;;;;;;;;;;;15.70;99.90;;;;;;5074991;28;19919;-68
2021/09/15 04:01:19;;;;;;;;;;;15.80;99.90;;;;;;5074987;28;19908;-68
2021/09/15 04:03:45;;;;;;;;;;;15.50;99.90;;;;;;5074711;28;19909;-69
2021/09/15 04:06:12;;;;;;;;;;;15.50;99.90;;;;;;5074780;28;19912;-69
2021/09/15 04:08:39;;;;;;;;;;;15.60;99.90;;;;;;5076757;28;19920;-68
2021/09/15 04:11:05;;;;;;;;;;;15.70;99.90;;;;;;5074742;28;19931;-68
2021/09/15 04:13:32;;;;;;;;;;;15.60;99.90;;;;;;5074260;28;20270;-68
2021/09/15 04:15:59;;;;;;;;;;;15.50;99.90;;;;;;5074411;28;19996;-69
2021/09/15 04:18:25;;;;;;;;;;;15.60;99.90;;;;;;5074423;28;20407;-69
2021/09/15 04:20:52;;;;;;;;;;;15.60;99.90;;;;;;5074377;28;19912;-69
2021/09/15 04:23:29;;;;;;;;;;;15.50;99.90;;;;;;5074045;28;19912;-68
2021/09/15 04:31:25;;;;;;;;;;;15.60;99.90;;;;;;5074260;28;19955;-69
2021/09/15 04:33:53;;;;;;;;;;;15.60;99.90;;;;;;5074083;28;19913;-68
2021/09/15 04:36:20;;;;;;;;;;;15.60;99.90;;;;;;5106465;28;19943;-69
2021/09/15 04:38:47;;;;;;;;;;;15.70;99.90;;;;;;5073723;28;19920;-69
2021/09/15 04:41:14;;;;;;;;;;;15.70;99.90;;;;;;5073987;28;19909;-69
2021/09/15 04:43:41;;;;;;;;;;;15.60;99.90;;;;;;5073618;28;19908;-69
2021/09/15 04:46:08;;;;;;;;;;;15.40;99.90;;;;;;5073712;28;20325;-69
2021/09/15 04:48:37;;;;;;;;;;;15.30;99.90;;;;;;5073694;28;20053;-69
2021/09/15 04:51:03;;;;;;;;;;;15.30;99.90;;;;;;5073897;28;19909;-70
2021/09/15 04:53:30;;;;;;;;;;;15.30;99.90;;;;;;5073510;28;19915;-69
2021/09/15 04:55:57;;;;;;;;;;;15.10;99.90;;;;;;5073454;28;19915;-69
2021/09/15 04:58:24;;;;;;;;;;;15.00;99.90;;;;;;5073152;28;20290;-69
2021/09/15 05:00:50;;;;;;;;;;;15.00;99.90;;;;;;5073653;28;19920;-69
2021/09/15 05:03:17;;;;;;;;;;;15.00;99.90;;;;;;5073595;27;19951;-69
2021/09/15 05:05:44;;;;;;;;;;;14.80;99.90;;;;;;5073345;28;19962;-69
2021/09/15 05:08:10;;;;;;;;;;;14.80;99.90;;;;;;5073234;28;19909;-69
2021/09/15 05:10:37;;;;;;;;;;;14.80;99.90;;;;;;5073576;28;19954;-68
2021/09/15 05:13:04;;;;;;;;;;;14.70;99.90;;;;;;5073539;28;19920;-68
2021/09/15 05:15:30;;;;;;;;;;;14.60;99.90;;;;;;5073132;28;19912;-68
2021/09/15 05:17:57;;;;;;;;;;;14.60;99.90;;;;;;5073234;28;19912;-68
2021/09/15 05:20:24;;;;;;;;;;;14.70;99.90;;;;;;5073070;28;20047;-68
2021/09/15 05:22:51;;;;;;;;;;;14.70;99.90;;;;;;5073019;28;19915;-69
2021/09/15 05:25:18;;;;;;;;;;;14.60;99.90;;;;;;5073037;28;20422;-69
2021/09/15 05:27:45;;;;;;;;;;;14.70;99.90;;;;;;5072711;28;19936;-69
2021/09/15 05:30:12;;;;;;;;;;;14.60;99.90;;;;;;5072990;28;19908;-69
2021/09/15 05:32:39;;;;;;;;;;;14.70;99.90;;;;;;5073034;28;20385;-68
2021/09/15 05:35:07;;;;;;;;;;;14.70;99.90;;;;;;5073014;28;19962;-69
2021/09/15 05:37:34;;;;;;;;;;;14.70;99.90;;;;;;5072549;28;19951;-69
2021/09/15 05:40:01;;;;;;;;;;;14.70;99.90;;;;;;5072793;28;20011;-69
2021/09/15 05:42:28;;;;;;;;;;;14.80;99.90;;;;;;5072841;28;19909;-69
2021/09/15 05:44:58;;;;;;;;;;;14.90;99.90;;;;;;5072700;28;19909;-69
2021/09/15 05:47:24;;;;;;;;;;;15.00;99.90;;;;;;5072594;28;19920;-69
2021/09/15 05:49:51;;;;;;;;;;;14.90;99.90;;;;;;5072546;28;20043;-69
2021/09/15 05:52:18;;;;;;;;;;;14.90;99.90;;;;;;5072592;28;20270;-68
2021/09/15 05:54:44;;;;;;;;;;;14.80;99.90;;;;;;5072880;28;20347;-69
2021/09/15 05:57:11;;;;;;;;;;;14.80;99.90;;;;;;5072667;28;19908;-69
2021/09/15 05:59:37;;;;;;;;;;;14.80;99.90;;;;;;5072317;28;19916;-69
2021/09/15 06:02:04;;;;;;;;;;;14.80;99.90;;;;;;5072478;28;19919;-69
2021/09/15 06:04:31;;;;;;;;;;;14.80;99.90;;;;;;5072438;28;20336;-69
2021/09/15 06:06:57;;;;;;;;;;;14.80;99.90;;;;;;5072675;28;20349;-69
2021/09/15 06:09:24;;;;;;;;;;;14.70;99.90;;;;;;5072230;28;19955;-69
2021/09/15 06:11:51;;;;;;;;;;;14.70;99.90;;;;;;5071971;28;19909;-69
2021/09/15 06:14:17;;;;;;;;;;;14.70;99.90;;;;;;5072814;28;20370;-69
2021/09/15 06:16:44;;;;;;;;;;;14.70;99.90;;;;;;5072726;28;19999;-70
2021/09/15 06:19:11;;;;;;;;;;;14.70;99.90;;;;;;5072390;28;19917;-69
2021/09/15 06:21:37;;;;;;;;;;;14.80;99.90;;;;;;5072073;28;19909;-69
2021/09/15 06:24:04;;;;;;;;;;;14.80;99.90;;;;;;5072419;28;20003;-68
2021/09/15 06:26:31;;;;;;;;;;;14.70;99.90;;;;;;5072238;28;19908;-69
2021/09/15 06:28:57;;;;;;;;;;;14.60;99.90;;;;;;5072346;28;20363;-69
2021/09/15 06:31:24;;;;;;;;;;;14.60;99.90;;;;;;5072341;28;20295;-69
2021/09/15 06:33:52;;;;;;;;;;;14.60;99.90;;;;;;5072226;28;20523;-68
2021/09/15 06:36:19;;;;;;;;;;;14.50;99.90;;;;;;5072412;28;19916;-69
2021/09/15 06:38:46;;;;;;;;;;;14.60;99.90;;;;;;5071975;28;19913;-69
2021/09/15 06:41:14;;;;;;;;;;;14.40;99.90;;;;;;5072242;28;19912;-69
2021/09/15 06:43:41;;;;;;;;;;;14.40;99.90;;;;;;5071927;28;20359;-69
2021/09/15 06:46:08;;;;;;;;;;;14.30;99.90;;;;;;5071906;28;19909;-67
2021/09/15 06:48:34;;;;;;;;;;;14.30;99.90;;;;;;5071910;28;19921;-69
2021/09/15 06:51:01;;;;;;;;;;;14.20;99.90;;;;;;5070816;28;20019;-69
2021/09/15 06:53:28;;;;;;;;;;;14.30;99.90;;;;;;5069923;28;19916;-69
2021/09/15 06:55:55;;;;;;;;;;;14.30;99.90;;;;;;5070144;28;20437;-69
2021/09/15 06:58:21;;;;;;;;;;;14.30;99.90;;;;;;5069887;28;19909;-69
2021/09/15 07:00:48;;;;;;;;;;;14.20;99.90;;;;;;5069930;28;20410;-70
2021/09/15 07:03:14;;;;;;;;;;;14.20;99.90;;;;;;5070044;28;19915;-69
2021/09/15 07:05:41;;;;;;;;;;;14.20;99.90;;;;;;5069328;28;19908;-69
2021/09/15 07:08:08;;;;;;;;;;;14.10;99.90;;;;;;5069804;28;20403;-68
2021/09/15 07:10:37;;;;;;;;;;;14.10;99.90;;;;;;5069997;28;19958;-68
2021/09/15 07:13:04;;;;;;;;;;;14.10;99.90;;;;;;5069717;28;20299;-68
2021/09/15 07:15:30;;;;;;;;;;;14.20;99.90;;;;;;5069513;28;19908;-68
2021/09/15 07:17:57;;;;;;;;;;;14.10;99.90;;;;;;5069521;28;19912;-68
2021/09/15 07:20:24;;;;;;;;;;;14.10;99.90;;;;;;5069493;28;19917;-68
2021/09/15 07:22:50;;;;;;;;;;;14.00;99.90;;;;;;5072590;28;20302;-68
2021/09/15 07:25:18;;;;;;;;;;;13.90;99.90;;;;;;5073700;28;19995;-68
2021/09/15 07:27:44;;;;;;;;;;;13.90;99.90;;;;;;5072135;28;19923;-67
2021/09/15 07:30:12;;;;;;;;;;;13.90;99.90;;;;;;5072393;28;19909;-69
2021/09/15 07:32:39;;;;;;;;;;;13.90;99.90;;;;;;5073528;28;19920;-70
2021/09/15 07:35:06;;;;;;;;;;;13.90;99.90;;;;;;5072440;28;19935;-68
2021/09/15 07:37:32;;;;;;;;;;;13.90;99.90;;;;;;5073251;28;19908;-69
2021/09/15 07:39:59;;;;;;;;;;;13.80;99.90;;;;;;5073609;28;20269;-69
2021/09/15 07:42:26;;;;;;;;;;;13.80;99.90;;;;;;5073188;28;19939;-69
2021/09/15 07:44:52;;;;;;;;;;;13.80;99.90;;;;;;5072820;28;19913;-69
2021/09/15 07:47:19;;;;;;;;;;;13.70;99.90;;;;;;5072730;28;20003;-69
2021/09/15 07:49:49;;;;;;;;;;;13.70;99.90;;;;;;5072678;28;20409;-69
2021/09/15 07:52:16;;;;;;;;;;;13.70;99.90;;;;;;5072800;28;20382;-69
2021/09/15 07:54:43;;;;;;;;;;;13.70;99.90;;;;;;5073350;28;19912;-69
2021/09/15 07:57:10;;;;;;;;;;;13.60;99.90;;;;;;5072521;28;19946;-69
2021/09/15 07:59:36;;;;;;;;;;;13.60;99.90;;;;;;5072661;28;19916;-69
2021/09/15 08:02:03;;;;;;;;;;;13.60;99.90;;;;;;5072808;28;19915;-69
2021/09/15 08:04:31;;;;;;;;;;;13.50;99.90;;;;;;5072629;28;20378;-69
2021/09/15 08:06:58;;;;;;;;;;;13.50;99.90;;;;;;5072464;28;19919;-69
2021/09/15 08:09:24;;;;;;;;;;;13.50;99.90;;;;;;5072002;28;19967;-69
2021/09/15 08:11:51;;;;;;;;;;;13.50;99.90;;;;;;5072565;28;19961;-70
2021/09/15 08:14:18;;;;;;;;;;;13.50;99.90;;;;;;5072520;28;20327;-69
2021/09/15 08:16:44;;;;;;;;;;;13.60;99.90;;;;;;5072760;28;20419;-69
2021/09/15 08:19:11;;;;;;;;;;;13.60;99.90;;;;;;5072425;28;19920;-69
2021/09/15 08:21:38;;;;;;;;;;;13.60;99.90;;;;;;5106309;28;19961;-70
2021/09/15 08:24:04;;;;;;;;;;;13.60;99.90;;;;;;5073412;28;19931;-70
2021/09/15 08:26:31;;;;;;;;;;;13.60;99.90;;;;;;5072434;28;19912;-70
2021/09/15 08:28:58;;;;;;;;;;;13.60;99.90;;;;;;5074491;28;19909;-70
2021/09/15 08:31:24;;;;;;;;;;;13.60;99.90;;;;;;5082888;28;20378;-68
2021/09/15 08:33:51;;;;;;;;;;;13.60;99.90;;;;;;5081404;28;20417;-69
2021/09/15 08:36:18;;;;;;;;;;;13.60;99.90;;;;;;5075521;28;19984;-69
2021/09/15 08:38:44;;;;;;;;;;;13.60;99.90;;;;;;5074427;28;19918;-68
2021/09/15 08:41:11;;;;;;;;;;;13.50;99.90;;;;;;5072792;28;19908;-69
2021/09/15 08:43:38;;;;;;;;;;;13.50;99.90;;;;;;5072032;28;19931;-69
2021/09/15 08:46:07;;;;;;;;;;;13.50;99.90;;;;;;5072155;28;20231;-70
2021/09/15 08:48:38;;;;;;;;;;;13.50;99.90;;;;;;5071149;28;19966;-69
2021/09/15 08:51:04;;;;;;;;;;;13.50;99.90;;;;;;5071743;28;20090;-69
2021/09/15 08:53:31;;;;;;;;;;;13.50;99.90;;;;;;5071490;28;20011;-69
2021/09/15 08:55:58;;;;;;;;;;;13.50;99.90;;;;;;5071644;28;19908;-68
2021/09/15 08:58:24;;;;;;;;;;;13.40;99.90;;;;;;5071434;28;19913;-68
2021/09/15 09:00:51;;;;;;;;;;;13.50;99.90;;;;;;5071495;28;19935;-69
2021/09/15 09:03:18;;;;;;;;;;;13.40;99.90;;;;;;5071229;28;19943;-69
2021/09/15 09:05:45;;;;;;;;;;;13.40;99.90;;;;;;5072164;28;19951;-69
2021/09/15 09:08:25;;;;;;;;;;;13.40;99.90;;;;;;5073483;28;20307;-69
2021/09/15 09:10:55;;;;;;;;;;;13.40;99.90;;;;;;5073619;28;19991;-69
2021/09/15 09:13:21;;;;;;;;;;;13.40;99.90;;;;;;5073359;28;19934;-69
2021/09/15 09:15:51;;;;;;;;;;;13.40;99.90;;;;;;5073315;28;20389;-68
2021/09/15 09:18:17;;;;;;;;;;;13.40;99.90;;;;;;5073366;28;19909;-69
2021/09/15 09:20:44;;;;;;;;;;;13.30;99.90;;;;;;5072992;28;19962;-69
2021/09/15 09:23:15;;;;;;;;;;;13.30;99.90;;;;;;5073412;28;19908;-69
2021/09/15 09:25:55;;;;;;;;;;;13.40;99.90;;;;;;5073223;28;19932;-69
2021/09/15 09:28:22;;;;;;;;;;;13.40;99.90;;;;;;5073402;28;19973;-69
2021/09/15 09:30:50;;;;;;;;;;;13.30;99.90;;;;;;5073299;28;19912;-69
2021/09/15 09:33:17;;;;;;;;;;;13.30;99.90;;;;;;5105575;28;20024;-68
2021/09/15 09:35:48;;;;;;;;;;;13.30;99.90;;;;;;5072796;28;20017;-69
2021/09/15 09:38:19;;;;;;;;;;;13.30;99.90;;;;;;5073202;28;20291;-69
2021/09/15 09:40:56;;;;;;;;;;;13.40;99.90;;;;;;5072858;28;19923;-68
2021/09/15 09:43:23;;;;;;;;;;;13.40;99.90;;;;;;5073241;28;19916;-68
2021/09/15 09:45:49;;;;;;;;;;;13.30;99.90;;;;;;5071912;28;19915;-68
2021/09/15 09:48:29;;;;;;;;;;;13.30;99.90;;;;;;5072782;28;20604;-68
2021/09/15 09:50:56;;;;;;;;;;;13.30;99.90;;;;;;5105309;28;20287;-68
2021/09/15 09:53:23;;;;;;;;;;;13.30;99.90;;;;;;5072863;28;19916;-68
2021/09/15 09:55:54;;;;;;;;;;;13.40;99.90;;;;;;5072617;28;19915;-68
2021/09/15 09:58:23;;;;;;;;;;;13.40;99.90;;;;;;5072995;28;19913;-68
2021/09/15 10:00:50;;;;;;;;;;;13.30;99.90;;;;;;5072601;28;19930;-68
2021/09/15 10:03:17;;;;;;;;;;;13.20;99.90;;;;;;5072538;28;20002;-68
2021/09/15 10:05:46;;;;;;;;;;;13.20;99.90;;;;;;5072227;28;19909;-68
2021/09/15 10:08:16;;;;;;;;;;;13.20;99.90;;;;;;5072656;28;19909;-69
2021/09/15 10:10:43;;;;;;;;;;;13.10;99.90;;;;;;5072541;28;19909;-69
2021/09/15 10:13:10;;;;;;;;;;;13.10;99.90;;;;;;5072439;28;19915;-69
2021/09/15 10:15:51;;;;;;;;;;;13.00;99.90;;;;;;5077192;28;19908;-68
2021/09/15 10:18:19;;;;;;;;;;;13.00;99.90;;;;;;5092607;28;19912;-69
2021/09/15 10:20:47;;;;;;;;;;;13.00;99.90;;;;;;5092180;28;19956;-68
2021/09/15 10:23:31;;;;;;;;;;;13.00;99.90;;;;;;5081738;28;19909;-69
2021/09/15 10:25:58;;;;;;;;;;;13.10;99.90;;;;;;5072416;28;19912;-68
2021/09/15 10:28:25;;;;;;;;;;;13.10;99.90;;;;;;5072279;28;20346;-69
2021/09/15 10:30:52;;;;;;;;;;;13.10;99.90;;;;;;5071646;28;20007;-68
2021/09/15 10:33:37;;;;;;;;;;;13.10;99.90;;;;;;5072370;28;19912;-69
2021/09/15 10:36:13;;;;;;;;;;;13.10;99.90;;;;;;5072192;28;19984;-68
2021/09/15 10:38:53;;;;;;;;;;;13.20;99.90;;;;;;5072121;28;20334;-69
2021/09/15 10:41:32;;;;;;;;;;;13.20;99.90;;;;;;5071631;28;19913;-68
2021/09/15 10:44:11;;;;;;;;;;;13.20;99.90;;;;;;5071874;28;19912;-69
2021/09/15 10:53:35;;;;;;;;;;;13.20;99.90;;;;;;5072136;28;19919;-68
2021/09/15 10:56:02;;;;;;;;;;;13.20;99.90;;;;;;5072422;28;19982;-68
2021/09/15 10:58:30;;;;;;;;;;;13.30;99.90;;;;;;5075825;28;19916;-69
2021/09/15 11:01:06;;;;;;;;;;;13.20;99.90;;;;;;5075101;28;19912;-69
2021/09/15 11:03:34;;;;;;;;;;;13.20;99.90;;;;;;5075772;28;19909;-69
2021/09/15 11:06:07;;;;;;;;;;;13.10;99.90;;;;;;5075737;28;19909;-69
2021/09/15 11:08:36;;;;;;;;;;;13.10;99.90;;;;;;5075933;28;19951;-68
2021/09/15 11:11:03;;;;;;;;;;;13.10;99.90;;;;;;5075727;28;20316;-69
2021/09/15 11:13:31;;;;;;;;;;;13.00;99.90;;;;;;5075708;28;19913;-69
2021/09/15 11:16:17;;;;;;;;;;;13.00;99.90;;;;;;5075329;28;19958;-69
2021/09/15 11:18:53;;;;;;;;;;;12.90;99.90;;;;;;5075120;28;20369;-69
2021/09/15 11:21:20;;;;;;;;;;;12.80;99.90;;;;;;5075404;28;19912;-69
2021/09/15 11:23:46;;;;;;;;;;;12.80;99.90;;;;;;5075404;28;19923;-69
2021/09/15 11:26:13;;;;;;;;;;;12.80;99.90;;;;;;5075604;28;19908;-69
2021/09/15 11:28:45;;;;;;;;;;;12.80;99.90;;;;;;5074978;28;19909;-69
2021/09/15 11:31:12;;;;;;;;;;;12.80;99.90;;;;;;5075464;28;19908;-69
2021/09/15 11:33:38;;;;;;;;;;;12.80;99.90;;;;;;5075077;28;19919;-69
2021/09/15 11:36:07;;;;;;;;;;;12.80;99.90;;;;;;5075051;28;19936;-69
2021/09/15 11:38:35;;;;;;;;;;;12.80;99.90;;;;;;5075389;28;19990;-69
2021/09/15 11:41:06;;;;;;;;;;;12.80;99.90;;;;;;5076537;28;19912;-69
2021/09/15 11:43:33;;;;;;;;;;;12.80;99.90;;;;;;5075381;28;20007;-69
2021/09/15 11:45:59;;;;;;;;;;;12.90;99.90;;;;;;5075340;28;19915;-69
2021/09/15 11:48:27;;;;;;;;;;;12.90;99.90;;;;;;5072584;28;19928;-68
2021/09/15 11:50:53;;;;;;;;;;;12.80;99.90;;;;;;5074900;28;20022;-68
2021/09/15 11:53:23;;;;;;;;;;;12.80;99.90;;;;;;5074727;28;19915;-69
2021/09/15 11:56:00;;;;;;;;;;;12.80;99.90;;;;;;5074530;28;19948;-69
2021/09/15 11:58:27;;;;;;;;;;;12.80;99.90;;;;;;5074188;28;20382;-69
2021/09/15 12:00:54;;;;;;;;;;;12.80;99.90;;;;;;5074685;28;19924;-69
2021/09/15 12:03:30;;;;;;;;;;;12.70;99.90;;;;;;5074580;28;19910;-69
2021/09/15 12:05:58;;;;;;;;;;;12.70;99.90;;;;;;5074382;28;20011;-69
2021/09/15 12:08:25;;;;;;;;;;;12.70;99.90;;;;;;5073411;28;20348;-69
2021/09/15 12:10:58;;;;;;;;;;;12.70;99.90;;;;;;5073372;28;19984;-69
2021/09/15 12:13:29;;;;;;;;;;;12.60;99.90;;;;;;5072389;28;19944;-69
2021/09/15 12:15:56;;;;;;;;;;;12.70;99.90;;;;;;5074515;28;19954;-69
2021/09/15 12:18:36;;;;;;;;;;;12.70;99.90;;;;;;5074433;28;19909;-69
2021/09/15 12:21:06;;;;;;;;;;;12.70;99.90;;;;;;5074676;28;20008;-69
2021/09/15 12:23:34;;;;;;;;;;;12.70;99.90;;;;;;5072679;28;19919;-69
2021/09/15 12:26:02;;;;;;;;;;;12.70;99.90;;;;;;5074234;28;19908;-68
2021/09/15 12:28:29;;;;;;;;;;;12.70;99.90;;;;;;5073577;28;19912;-69
2021/09/15 12:30:56;;;;;;;;;;;12.70;99.90;;;;;;5074081;28;19908;-69
2021/09/15 12:33:25;;;;;;;;;;;12.70;99.90;;;;;;5074237;28;19916;-69
2021/09/15 12:36:09;;;;;;;;;;;12.60;99.90;;;;;;5073851;28;20343;-69
2021/09/15 12:38:57;;;;;;;;;;;12.60;99.90;;;;;;5074022;28;20367;-68
2021/09/15 12:41:24;;;;;;;;;;;12.60;99.90;;;;;;5074115;28;20322;-68
2021/09/15 12:44:01;;;;;;;;;;;12.60;99.90;;;;;;5073837;28;20003;-69
2021/09/15 12:46:28;;;;;;;;;;;12.50;99.90;;;;;;5073929;28;19908;-68
2021/09/15 12:49:19;;;;;;;;;;;12.50;99.90;;;;;;5071517;28;20010;-69
2021/09/15 12:52:10;;;;;;;;;;;12.50;99.90;;;;;;5073385;28;19991;-69
2021/09/15 12:55:01;;;;;;;;;;;12.40;99.90;;;;;;5073716;28;19919;-69
2021/09/15 12:57:52;;;;;;;;;;;12.40;99.90;;;;;;5073846;28;20359;-69
2021/09/15 13:00:43;;;;;;;;;;;12.30;99.90;;;;;;5073573;28;19928;-68
2021/09/15 13:03:34;;;;;;;;;;;12.20;99.90;;;;;;5073517;28;20007;-68
2021/09/15 13:06:26;;;;;;;;;;;12.20;99.90;;;;;;5073398;28;20250;-68
2021/09/15 13:08:54;;;;;;;;;;;12.10;99.90;;;;;;5073357;28;20367;-68
2021/09/15 13:11:22;;;;;;;;;;;12.00;99.90;;;;;;5075029;28;19973;-68
2021/09/15 13:13:49;;;;;;;;;;;12.00;99.90;;;;;;5076109;28;19919;-68
2021/09/15 13:16:18;;;;;;;;;;;12.00;99.90;;;;;;5076398;28;20244;-68
2021/09/15 13:18:44;;;;;;;;;;;11.90;99.90;;;;;;5073039;28;20401;-68
2021/09/15 13:21:11;;;;;;;;;;;11.90;99.90;;;;;;5073059;28;19913;-68
2021/09/15 13:23:38;;;;;;;;;;;11.80;99.90;;;;;;5072864;28;20313;-69
2021/09/15 13:26:04;;;;;;;;;;;11.80;99.90;;;;;;5073534;28;20282;-68
2021/09/15 13:28:31;;;;;;;;;;;11.80;99.90;;;;;;5073259;28;19988;-68
2021/09/15 13:30:58;;;;;;;;;;;11.80;99.90;;;;;;5072972;28;19955;-69
2021/09/15 13:33:24;;;;;;;;;;;11.70;99.90;;;;;;5073085;28;19913;-69
2021/09/15 13:35:51;;;;;;;;;;;11.70;99.90;;;;;;5072605;28;20359;-69
2021/09/15 13:38:18;;;;;;;;;;;11.70;99.90;;;;;;5071530;28;20397;-68
2021/09/15 13:40:45;;;;;;;;;;;11.70;99.90;;;;;;5072798;28;19917;-69
2021/09/15 13:43:11;;;;;;;;;;;11.60;99.90;;;;;;5072851;28;19916;-69
2021/09/15 13:45:39;;;;;;;;;;;11.60;99.90;;;;;;5072580;28;20319;-68
2021/09/15 13:51:00;;;;;;;;;;;11.60;99.90;;;;;;5072644;28;19923;-68
2021/09/15 13:53:27;;;;;;;;;;;11.60;99.90;;;;;;5072669;28;19918;-69
2021/09/15 13:55:54;;;;;;;;;;;11.50;99.90;;;;;;5072376;28;19908;-69
2021/09/15 13:58:21;;;;;;;;;;;11.50;99.90;;;;;;5072533;28;20426;-69
2021/09/15 14:00:47;;;;;;;;;;;11.40;99.90;;;;;;5072522;28;20063;-69
2021/09/15 14:03:14;;;;;;;;;;;11.40;99.90;;;;;;5072480;28;19908;-69
2021/09/15 14:05:41;;;;;;;;;;;11.40;99.90;;;;;;5072230;28;20287;-69
2021/09/15 14:08:07;;;;;;;;;;;11.40;99.90;;;;;;5072699;28;20025;-69
2021/09/15 14:10:34;;;;;;;;;;;11.40;99.90;;;;;;5072470;28;20363;-68
2021/09/15 14:13:02;;;;;;;;;;;11.40;99.90;;;;;;5072461;28;19909;-68
2021/09/15 14:15:29;;;;;;;;;;;11.30;99.90;;;;;;5072398;28;19912;-68
2021/09/15 14:17:56;;;;;;;;;;;11.30;99.90;;;;;;5071192;28;20013;-68
2021/09/15 14:20:22;;;;;;;;;;;11.30;99.90;;;;;;5072192;28;20325;-69
2021/09/15 14:22:49;;;;;;;;;;;11.20;99.90;;;;;;5072358;28;20394;-68
2021/09/15 14:25:16;;;;;;;;;;;11.20;99.90;;;;;;5072309;28;19908;-69
2021/09/15 14:27:42;;;;;;;;;;;11.20;99.90;;;;;;5072160;28;20003;-68
2021/09/15 14:30:09;;;;;;;;;;;11.20;99.90;;;;;;5072572;28;19916;-68
2021/09/15 14:32:36;;;;;;;;;;;11.10;99.90;;;;;;5075404;28;20428;-68
2021/09/15 14:35:03;;;;;;;;;;;11.10;99.90;;;;;;5076173;28;20019;-68
2021/09/15 14:37:29;;;;;;;;;;;11.10;99.90;;;;;;5076458;28;19953;-69